地図

経路データ

SID SEASON NUMBER BASIN SUBBASIN NAME ISO_TIME NATURE LAT LON WMO_WIND WMO_PRES WMO_AGENCY TRACK_TYPE DIST2LAND LANDFALL IFLAG USA_AGENCY USA_ATCF_ID USA_LAT USA_LON USA_RECORD USA_STATUS USA_WIND USA_PRES USA_SSHS USA_R34_NE USA_R34_SE USA_R34_SW USA_R34_NW USA_R50_NE USA_R50_SE USA_R50_SW USA_R50_NW USA_R64_NE USA_R64_SE USA_R64_SW USA_R64_NW USA_POCI USA_ROCI USA_RMW USA_EYE TOKYO_LAT TOKYO_LON TOKYO_GRADE TOKYO_WIND TOKYO_PRES TOKYO_R50_DIR TOKYO_R50_LONG TOKYO_R50_SHORT TOKYO_R30_DIR TOKYO_R30_LONG TOKYO_R30_SHORT TOKYO_LAND CMA_LAT CMA_LON CMA_CAT CMA_WIND CMA_PRES HKO_LAT HKO_LON HKO_CAT HKO_WIND HKO_PRES NEWDELHI_LAT NEWDELHI_LON NEWDELHI_GRADE NEWDELHI_WIND NEWDELHI_PRES NEWDELHI_CI NEWDELHI_DP NEWDELHI_POCI REUNION_LAT REUNION_LON REUNION_TYPE REUNION_WIND REUNION_PRES REUNION_TNUM REUNION_CI REUNION_RMW REUNION_R34_NE REUNION_R34_SE REUNION_R34_SW REUNION_R34_NW REUNION_R50_NE REUNION_R50_SE REUNION_R50_SW REUNION_R50_NW REUNION_R64_NE REUNION_R64_SE REUNION_R64_SW REUNION_R64_NW BOM_LAT BOM_LON BOM_TYPE BOM_WIND BOM_PRES BOM_TNUM BOM_CI BOM_RMW BOM_R34_NE BOM_R34_SE BOM_R34_SW BOM_R34_NW BOM_R50_NE BOM_R50_SE BOM_R50_SW BOM_R50_NW BOM_R64_NE BOM_R64_SE BOM_R64_SW BOM_R64_NW BOM_ROCI BOM_POCI BOM_EYE BOM_POS_METHOD BOM_PRES_METHOD NADI_LAT NADI_LON NADI_CAT NADI_WIND NADI_PRES WELLINGTON_LAT WELLINGTON_LON WELLINGTON_WIND WELLINGTON_PRES DS824_LAT DS824_LON DS824_STAGE DS824_WIND DS824_PRES TD9636_LAT TD9636_LON TD9636_STAGE TD9636_WIND TD9636_PRES TD9635_LAT TD9635_LON TD9635_WIND TD9635_PRES TD9635_ROCI NEUMANN_LAT NEUMANN_LON NEUMANN_CLASS NEUMANN_WIND NEUMANN_PRES MLC_LAT MLC_LON MLC_CLASS MLC_WIND MLC_PRES USA_GUST BOM_GUST BOM_GUST_PER REUNION_GUST REUNION_GUST_PER USA_SEAHGT USA_SEARAD_NE USA_SEARAD_SE USA_SEARAD_SW USA_SEARAD_NW STORM_SPEED STORM_DIR
1943054S17118 1943 20 SI WA NOT_NAMED 1943-02-23 01:00:00 NR -16.5000 118.000 990 bom main 419 411 ______O_______ -1 -16.5000 118.000 990 5 235
1943054S17118 1943 20 SI WA NOT_NAMED 1943-02-23 03:00:00 NR -16.5900 117.861 main 411 404 ______P_______ -1 -16.5900 117.861 5 236
1943054S17118 1943 20 SI WA NOT_NAMED 1943-02-23 06:00:00 NR -16.7281 117.652 main 408 395 ______P_______ -1 -16.7281 117.652 5 235
1943054S17118 1943 20 SI WA NOT_NAMED 1943-02-23 09:00:00 NR -16.8743 117.442 main 398 389 ______P_______ -1 -16.8743 117.442 5 233
1943054S17118 1943 20 SI WA NOT_NAMED 1943-02-23 12:00:00 NR -17.0337 117.231 main 392 373 ______P_______ -1 -17.0337 117.231 5 230
1943054S17118 1943 20 SI WA NOT_NAMED 1943-02-23 15:00:00 NR -17.2114 117.020 main 376 373 ______P_______ -1 -17.2114 117.020 1 152
1943054S17118 1943 20 SI WA NOT_NAMED 1943-02-23 17:00:00 NR -17.0940 117.262 main 378 378 ______P___O___ -1 -17.3425 116.878 -16.1000 118.800 7 9 62
1943054S17118 1943 20 SI WA NOT_NAMED 1943-02-23 18:00:00 NR -17.0029 117.427 main 387 376 ______P___P___ -1 -17.4123 116.806 -16.1842 118.670 7 1 117
1943054S17118 1943 20 SI WA NOT_NAMED 1943-02-23 21:00:00 NR -17.1249 117.315 main 378 351 ______P___P___ -1 -17.6416 116.591 -16.4360 118.281 7 5 225
1943054S17118 1943 20 SI WA NOT_NAMED 1943-02-24 00:00:00 TS -17.3625 117.055 main 351 346 ______P__OP___ -1 -17.9042 116.373 -17.9000 116.400 TC 60 980 -16.6865 117.900 7 8 226
1943054S17118 1943 20 SI WA NOT_NAMED 1943-02-24 01:00:00 TS -17.5141 116.895 980 bom main 346 313 ______O__PP___ -1 -18.0000 116.300 980 -18.0313 116.325 TC -16.7696 117.776 7 11 223
1943054S17118 1943 20 SI WA NOT_NAMED 1943-02-24 03:00:00 TS -17.7670 116.661 main 313 291 ______P__PP___ -1 -18.2043 116.153 -18.2929 116.174 TC -16.9353 117.533 7 10 220
1943054S17118 1943 20 SI WA NOT_NAMED 1943-02-24 05:00:00 TS -18.0248 116.443 main 292 281 ______P__PO___ -1 -18.4229 116.005 -18.5515 116.023 TC -17.1000 117.300 7 9 218
1943054S17118 1943 20 SI WA NOT_NAMED 1943-02-24 06:00:00 TS -18.1325 116.356 main 281 243 ______P__PP___ -1 -18.5364 115.931 -18.6791 115.948 TC -17.1820 117.187 7 8 217
1943054S17118 1943 20 SI WA NOT_NAMED 1943-02-24 09:00:00 TS -18.4561 116.100 main 243 218 ______P__PP___ -1 -18.8884 115.709 -19.0524 115.725 TC -17.4276 116.865 7 8 217
1943054S17118 1943 20 SI WA NOT_NAMED 1943-02-24 12:00:00 TS -18.7765 115.852 main 218 203 ______P__PP___ -1 -19.2480 115.488 -19.4063 115.505 TC -17.6751 116.564 7 8 216
1943054S17118 1943 20 SI WA NOT_NAMED 1943-02-24 15:00:00 TS -19.0884 115.614 main 203 192 ______P__PP___ -1 -19.6033 115.271 -19.7344 115.291 TC -17.9275 116.280 7 8 216
1943054S17118 1943 20 SI WA NOT_NAMED 1943-02-24 17:00:00 TS -19.2891 115.461 main 192 187 ______P__PO___ -1 -19.8317 115.130 -19.9356 115.152 TC -18.1000 116.100 7 7 217
1943054S17118 1943 20 SI WA NOT_NAMED 1943-02-24 18:00:00 TS -19.3864 115.381 main 187 176 ______P__PP___ -1 -19.9420 115.060 -20.0302 115.084 TC -18.1871 115.999 7 7 218
1943054S17118 1943 20 SI WA NOT_NAMED 1943-02-24 21:00:00 TS -19.6643 115.148 main 176 163 ______P__PP___ -1 -20.2521 114.856 -20.2875 114.887 TC -18.4534 115.702 7 7 219
1943054S17118 1943 20 SI WA NOT_NAMED 1943-02-25 00:00:00 TS -19.9162 114.931 main 169 161 ______P__OP___ -1 -20.5214 114.662 -20.5000 114.700 TC 60 980 -18.7272 115.432 7 6 219
1943054S17118 1943 20 SI WA NOT_NAMED 1943-02-25 01:00:00 TS -19.9933 114.864 980 bom main 161 160 ______O__PP___ -1 -20.6000 114.600 980 4 -20.5599 114.640 TC -18.8201 115.352 7 6 221
1943054S17118 1943 20 SI WA NOT_NAMED 1943-02-25 03:00:00 TS -20.1264 114.739 main 167 159 ______P__PP___ -1 -20.7070 114.481 -20.6640 114.525 TC -19.0084 115.210 7 5 221
1943054S17118 1943 20 SI WA NOT_NAMED 1943-02-25 05:00:00 TS -20.2475 114.627 main 167 158 ______P__PO___ -1 -20.7928 114.367 -20.7497 114.415 TC -19.2000 115.100 7 5 220
1943054S17118 1943 20 SI WA NOT_NAMED 1943-02-25 06:00:00 TS -20.3068 114.579 main 158 140 ______P__PP___ -1 -20.8288 114.312 -20.7866 114.362 TC -19.3052 115.064 7 4 216
1943054S17118 1943 20 SI WA NOT_NAMED 1943-02-25 09:00:00 TS -20.4738 114.455 main 140 133 ______P__PP___ -1 -20.9139 114.152 -20.8775 114.207 TC -19.6299 115.006 7 4 214
1943054S17118 1943 20 SI WA NOT_NAMED 1943-02-25 12:00:00 TS -20.6230 114.352 main 133 116 ______P__PP___ -1 -20.9733 114.001 -20.9467 114.059 TC -19.9489 114.997 7 3 213
1943054S17118 1943 20 SI WA NOT_NAMED 1943-02-25 15:00:00 TS -20.7530 114.259 main 116 116 ______P__PP___ -1 -21.0179 113.856 -21.0038 113.917 TC -20.2372 115.004 7 3 216
1943054S17118 1943 20 SI WA NOT_NAMED 1943-02-25 17:00:00 TS -20.8283 114.195 main 119 108 ______P__PO___ -1 -21.0449 113.762 -21.0400 113.824 TC -20.4000 115.000 7 3 220
1943054S17118 1943 20 SI WA NOT_NAMED 1943-02-25 18:00:00 TS -20.8620 114.160 main 108 100 ______P__PP___ -1 -21.0587 113.716 -21.0585 113.778 TC -20.4688 114.987 7 3 226
1943054S17118 1943 20 SI WA NOT_NAMED 1943-02-25 21:00:00 TS -20.9551 114.052 main 100 100 ______P__PP___ -1 -21.1065 113.580 -21.1207 113.639 TC -20.6382 114.937 7 3 228
1943054S17118 1943 20 SI WA NOT_NAMED 1943-02-26 00:00:00 TS -21.0447 113.938 main 101 90 ______P__OP___ -1 -21.1722 113.445 -21.2000 113.500 TC 55 985 -20.7618 114.870 7 3 230
1943054S17118 1943 20 SI WA NOT_NAMED 1943-02-26 01:00:00 TS -21.0785 113.892 985 bom main 90 90 ______O__PP___ -1 -21.2000 113.400 985 -21.2404 113.433 TC -20.7949 114.842 7 4 238
1943054S17118 1943 20 SI WA NOT_NAMED 1943-02-26 03:00:00 TS -21.1418 113.768 main 91 84 ______P__PP___ -1 -21.2482 113.232 -21.3252 113.296 TC -20.8521 114.778 7 4 242
1943054S17118 1943 20 SI WA NOT_NAMED 1943-02-26 05:00:00 TS -21.2046 113.637 main 88 88 ______P__PO___ -1 -21.2988 113.055 -21.4151 113.155 TC -20.9000 114.700 7 4 243
1943054S17118 1943 20 SI WA NOT_NAMED 1943-02-26 06:00:00 TS -21.2370 113.567 main 88 84 ______P__PP___ -1 -21.3260 112.965 -21.4618 113.084 TC -20.9231 114.651 7 4 244
1943054S17118 1943 20 SI WA NOT_NAMED 1943-02-26 09:00:00 TS -21.3343 113.354 main 91 91 ______P__PP___ -1 -21.4191 112.702 -21.6094 112.877 TC -20.9742 114.482 7 4 243
1943054S17118 1943 20 SI WA NOT_NAMED 1943-02-26 12:00:00 TS -21.4394 113.148 main 108 103 ______P__PP___ -1 -21.5378 112.465 -21.7676 112.686 TC -21.0128 114.294 7 4 238
1943054S17118 1943 20 SI WA NOT_NAMED 1943-02-26 15:00:00 TS -21.5620 112.969 main 108 108 ______P__PP___ -1 -21.6924 112.277 -21.9361 112.521 TC -21.0575 114.110 7 4 230
1943054S17118 1943 20 SI WA NOT_NAMED 1943-02-26 17:00:00 TS -21.6582 112.874 main 112 112 ______P__PO___ -1 -21.8206 112.190 -22.0539 112.432 TC -21.1000 114.000 7 4 220
1943054S17118 1943 20 SI WA NOT_NAMED 1943-02-26 18:00:00 TS -21.7135 112.837 main 121 112 ______P__PP___ -1 -21.8933 112.161 -22.1145 112.394 TC -21.1328 113.955 7 4 204
1943054S17118 1943 20 SI WA NOT_NAMED 1943-02-26 21:00:00 TS -21.9006 112.765 main 112 99 ______P__PP___ -1 -22.1508 112.140 -22.3026 112.317 TC -21.2483 113.838 7 4 190
1943054S17118 1943 20 SI WA NOT_NAMED 1943-02-27 00:00:00 TS -22.1183 112.759 main 99 93 ______P__OP___ -1 -22.4752 112.237 -22.5000 112.300 TC 45 990 -21.3797 113.739 7 4 0
1943054S17118 1943 20 SI WA NOT_NAMED 1943-02-27 01:00:00 TS -22.1969 112.777 990 bom main 93 75 ______O__PP___ -1 -22.6000 112.300 990 -22.5658 112.321 TC -21.4249 113.709 7 5 161
1943054S17118 1943 20 SI WA NOT_NAMED 1943-02-27 03:00:00 TS -22.3782 112.850 main 75 71 ______P__PP___ -1 -22.9186 112.510 990 -22.7014 112.388 TC -21.5145 113.653 7 6 157
1943054S17118 1943 20 SI WA NOT_NAMED 1943-02-27 05:00:00 TS -22.5658 112.948 main 71 61 ______P__PO___ -1 -23.2556 112.762 990 -22.8418 112.482 TC -21.6000 113.600 7 6 153
1943054S17118 1943 20 SI WA NOT_NAMED 1943-02-27 06:00:00 TS -22.6543 112.999 main 62 52 ______P__PP___ -1 -23.4225 112.896 991 -22.9135 112.538 TC -21.6268 113.563 7 6 150
1943054S17118 1943 20 SI WA NOT_NAMED 1943-02-27 09:00:00 TS -22.9026 113.159 main 52 52 ______P__PP___ -1 -23.8759 113.285 991 -23.1342 112.738 TC -21.6978 113.454 7 6 149
1943054S17118 1943 20 SI WA NOT_NAMED 1943-02-27 10:00:00 TS -22.9770 113.212 992 bom main 60 51 ______O__PP___ -1 -24.0000 113.400 992 -23.2093 112.814 TC -21.7217 113.421 7 5 147
1943054S17118 1943 20 SI WA NOT_NAMED 1943-02-27 12:00:00 TS -23.1012 113.300 main 51 40 ______P__PP___ -1 -24.1657 113.563 -23.3615 112.974 TC -21.7762 113.363 7 4 145
1943054S17118 1943 20 SI WA NOT_NAMED 1943-02-27 15:00:00 TS -23.2625 113.427 main 40 30 ______P__PP___ -1 -24.3036 113.742 -23.5936 113.232 TC -21.8903 113.308 7 4 143
1943054S17118 1943 20 SI WA NOT_NAMED 1943-02-27 17:00:00 TS -23.3632 113.511 main 30 20 ______P__PO___ -1 -24.3395 113.825 -23.7500 113.410 TC -22.0000 113.300 7 3 133
1943054S17118 1943 20 SI WA NOT_NAMED 1943-02-27 18:00:00 TS -23.3804 113.560 main 20 10 ______P__PP___ -1 -24.3453 113.858 -23.8285 113.498 TC -22.0793 113.309 7 3 131
1943054S17118 1943 20 SI WA NOT_NAMED 1943-02-27 21:00:00 TS -23.4913 113.673 main 10 0 ______P__PP___ -1 -24.3321 113.932 -24.0646 113.759 TC -22.3640 113.372 7 3 138
1943054S17118 1943 20 SI WA NOT_NAMED 1943-02-28 00:00:00 TS -23.5853 113.761 main 0 0 ______P__OP___ -1 -24.3050 113.984 -24.3000 114.000 TC 45 992 -22.6869 113.479 7 1 126
1943054S17118 1943 20 SI WA NOT_NAMED 1943-02-28 01:00:00 NR -23.5480 113.760 992 bom main 0 0 ______O__PP___ -1 -24.3000 114.000 992 -24.3781 114.074 TC -22.7961 113.520 7 2 139
1943054S17118 1943 20 SI WA NOT_NAMED 1943-02-28 03:00:00 NR -23.6697 113.837 main 0 0 ______P__PP___ -1 -24.3318 114.064 -24.5336 114.210 TC -23.0076 113.609 7 4 149
1943054S17118 1943 20 SI WA NOT_NAMED 1943-02-28 05:00:00 NR -23.7814 113.912 main 0 0 ______P__PO___ -1 -24.3628 114.123 -24.6882 114.332 TC -23.2000 113.700 7 4 148
1943054S17118 1943 20 SI WA NOT_NAMED 1943-02-28 06:00:00 NR -23.8269 113.942 main 0 0 ______P__PP___ -1 -24.3788 114.151 -24.7652 114.388 TC -23.2751 113.734 7 3 146
1943054S17118 1943 20 SI WA NOT_NAMED 1943-02-28 09:00:00 NR -23.9520 114.032 main 0 0 ______P__PP___ -1 -24.4313 114.227 -24.9952 114.537 TC -23.4727 113.837 7 3 146
1943054S17118 1943 20 SI WA NOT_NAMED 1943-02-28 12:00:00 NR -24.0689 114.124 main 0 0 ______P__PP___ -1 -24.4965 114.294 -25.2237 114.658 TC -23.6412 113.954 7 3 144
1943054S17118 1943 20 SI WA NOT_NAMED 1943-02-28 15:00:00 NR -24.1889 114.222 main 0 0 ______P__PP___ -1 -24.5815 114.353 -25.4509 114.753 TC -23.7963 114.091 7 3 143
1943054S17118 1943 20 SI WA NOT_NAMED 1943-02-28 17:00:00 NR -24.2764 114.294 main 0 0 ______P__PO___ -1 -24.6528 114.388 -25.6017 114.803 TC -23.9000 114.200 7 3 143
1943054S17118 1943 20 SI WA NOT_NAMED 1943-02-28 18:00:00 NR -24.3272 114.334 main 0 0 ______P__PP___ -1 -24.6936 114.404 -25.6769 114.825 TC -23.9608 114.264 7 4 144
1943054S17118 1943 20 SI WA NOT_NAMED 1943-02-28 21:00:00 NR -24.4920 114.464 main 0 0 ______P__PP___ -1 -24.8397 114.449 -25.9020 114.875 TC -24.1444 114.479 7 4 145
1943054S17118 1943 20 SI WA NOT_NAMED 1943-03-01 00:00:00 NR -24.6758 114.601 main 0 0 ______P__PP___ -1 -25.0271 114.488 -26.1261 114.905 TC -24.3245 114.714 7 5 146
1943054S17118 1943 20 SI WA NOT_NAMED 1943-03-01 01:00:00 NR -24.7413 114.647 994 bom main 0 0 ______O__PP___ -1 -25.1000 114.500 994 -26.2007 114.911 TC -24.3827 114.794 7 5 149
1943054S17118 1943 20 SI WA NOT_NAMED 1943-03-01 03:00:00 NR -24.8786 114.737 main 0 0 ______P__PP___ -1 -25.2623 114.523 -26.3495 114.918 TC -24.4949 114.951 7 5 150
1943054S17118 1943 20 SI WA NOT_NAMED 1943-03-01 05:00:00 NR -25.0226 114.822 main 0 0 ______P__PO___ -1 -25.4453 114.544 -26.4981 114.918 TC -24.6000 115.100 7 5 151
1943054S17118 1943 20 SI WA NOT_NAMED 1943-03-01 06:00:00 NR -25.0900 114.864 main 0 0 ______P__PP___ -1 -25.5440 114.554 -26.5722 114.916 TC -24.6361 115.174 7 5 152
1943054S17118 1943 20 SI WA NOT_NAMED 1943-03-01 09:00:00 NR -25.2970 114.985 main 0 0 ______P__PP___ -1 -25.8659 114.582 -26.7944 114.900 TC -24.7282 115.387 7 5 155
1943054S17118 1943 20 SI WA NOT_NAMED 1943-03-01 12:00:00 NR -25.5235 115.092 main 0 0 ______P__PP___ -1 -26.2217 114.607 -27.0161 114.874 TC -24.8253 115.578 7 5 160
1943054S17118 1943 20 SI WA NOT_NAMED 1943-03-01 15:00:00 NR -25.7850 115.180 main 0 0 ______P__PP___ -1 -26.6051 114.631 -27.2374 114.838 TC -24.9648 115.729 7 6 166
1943054S17118 1943 20 SI WA NOT_NAMED 1943-03-01 17:00:00 NR -25.9864 115.223 main 0 0 ______P__PO___ -1 -26.8729 114.645 -27.3848 114.811 TC -25.1000 115.800 7 6 170
1943054S17118 1943 20 SI WA NOT_NAMED 1943-03-01 18:00:00 NR -26.1017 115.246 main 0 0 ______P__PP___ -1 -27.0097 114.653 -27.4585 114.796 TC -25.1938 115.840 7 6 157
1943054S17118 1943 20 SI WA NOT_NAMED 1943-03-01 21:00:00 NR -26.3446 115.391 main 0 0 ______P__PP___ -1 -27.4290 114.673 -27.6793 114.749 TC -25.5313 115.930 7 7 167
1943054S17118 1943 20 SI WA NOT_NAMED 1943-03-02 00:00:00 TS -26.7585 115.416 main 0 0 ______P__OP___ -1 -27.8567 114.693 -27.9000 114.700 TC 35 998 -25.9241 115.956 7 4 111
1943054S17118 1943 20 SI WA NOT_NAMED 1943-03-02 01:00:00 NR -26.4487 115.698 998 bom main 0 0 ______O___P___ -1 -28.0000 114.700 998 TC -26.0608 115.947 7 12 46
1943054S17118 1943 20 SI WA NOT_NAMED 1943-03-02 03:00:00 NR -26.3347 115.897 main 0 0 __________P___ -1 TC -26.3347 115.897 7 3 149
1943054S17118 1943 20 SI WA NOT_NAMED 1943-03-02 05:00:00 NR -26.6000 115.800 main 0 0 __________O___ -1 TC -26.6000 115.800 7 8 201
1943054S17118 1943 20 SI WA NOT_NAMED 1943-03-02 06:00:00 NR -26.7262 115.732 main 0 0 __________P___ -1 TC -26.7262 115.732 7 9 213
1943054S17118 1943 20 SI WA NOT_NAMED 1943-03-02 09:00:00 NR -27.0790 115.456 main 0 0 __________P___ -1 TC -27.0790 115.456 7 9 220
1943054S17118 1943 20 SI WA NOT_NAMED 1943-03-02 12:00:00 NR -27.4013 115.099 main 0 0 __________P___ -1 TC -27.4013 115.099 7 9 227
1943054S17118 1943 20 SI WA NOT_NAMED 1943-03-02 15:00:00 NR -27.7039 114.688 main 0 0 __________P___ -1 TC -27.7039 114.688 7 10 231
1943054S17118 1943 20 SI WA NOT_NAMED 1943-03-02 17:00:00 NR -27.9000 114.400 main 0 __________O___ -1 TC -27.9000 114.400 7 10 232

IBTrACS Databaseについて

本データベースは、米国NOAAが公開する1842年以降の世界の熱帯低気圧のベストトラックデータアーカイブInternational Best Track Archive for Climate Stewardship (IBTrACS)を、ウェブで閲覧しやすい形式に変換したものです。

最終更新日:2021-11-26